sensor_id;sensor_type;location;lat;lon;timestamp;pressure;altitude;pressure_sealevel;temperature;humidity
804;BME280;25687;49.976;8.240;2023-01-29T00:02:00;101419.16;;;-0.58;100.00
804;BME280;25687;49.976;8.240;2023-01-29T00:04:26;101424.94;;;-0.67;100.00
804;BME280;25687;49.976;8.240;2023-01-29T00:06:51;101424.94;;;-0.69;100.00
804;BME280;25687;49.976;8.240;2023-01-29T00:09:16;101422.47;;;-0.66;100.00
804;BME280;25687;49.976;8.240;2023-01-29T00:11:41;101428.28;;;-0.71;100.00
804;BME280;25687;49.976;8.240;2023-01-29T00:14:07;101426.66;;;-0.65;100.00
804;BME280;25687;49.976;8.240;2023-01-29T00:16:32;101417.34;;;-0.70;100.00
804;BME280;25687;49.976;8.240;2023-01-29T00:18:57;101420.88;;;-0.57;100.00
804;BME280;25687;49.976;8.240;2023-01-29T00:21:23;101433.47;;;-0.60;100.00
804;BME280;25687;49.976;8.240;2023-01-29T00:23:49;101435.22;;;-0.56;100.00
804;BME280;25687;49.976;8.240;2023-01-29T00:26:15;101433.56;;;-0.54;100.00
804;BME280;25687;49.976;8.240;2023-01-29T00:28:40;101441.22;;;-0.48;100.00
804;BME280;25687;49.976;8.240;2023-01-29T00:31:09;101446.22;;;-0.53;100.00
804;BME280;25687;49.976;8.240;2023-01-29T00:33:34;101452.81;;;-0.64;100.00
804;BME280;25687;49.976;8.240;2023-01-29T00:36:03;101446.13;;;-0.60;100.00
804;BME280;25687;49.976;8.240;2023-01-29T00:38:29;101451.28;;;-0.53;100.00
804;BME280;25687;49.976;8.240;2023-01-29T00:40:54;101457.06;;;-0.58;100.00
804;BME280;25687;49.976;8.240;2023-01-29T00:43:38;101440.09;;;-0.69;100.00
804;BME280;25687;49.976;8.240;2023-01-29T00:46:22;101443.44;;;-0.71;100.00
804;BME280;25687;49.976;8.240;2023-01-29T00:48:47;101431.66;;;-0.71;100.00
804;BME280;25687;49.976;8.240;2023-01-29T00:51:12;101435.75;;;-0.79;100.00
804;BME280;25687;49.976;8.240;2023-01-29T00:53:37;101438.38;;;-0.71;100.00
804;BME280;25687;49.976;8.240;2023-01-29T00:56:02;101434.31;;;-0.61;100.00
804;BME280;25687;49.976;8.240;2023-01-29T00:58:28;101436.84;;;-0.60;100.00
804;BME280;25687;49.976;8.240;2023-01-29T01:00:58;101435.88;;;-0.70;100.00
804;BME280;25687;49.976;8.240;2023-01-29T01:03:25;101426.66;;;-0.66;100.00
804;BME280;25687;49.976;8.240;2023-01-29T01:05:50;101434.38;;;-0.55;100.00
804;BME280;25687;49.976;8.240;2023-01-29T01:08:26;101431.94;;;-0.51;100.00
804;BME280;25687;49.976;8.240;2023-01-29T01:11:09;101438.69;;;-0.50;100.00
804;BME280;25687;49.976;8.240;2023-01-29T01:13:35;101422.72;;;-0.44;100.00
804;BME280;25687;49.976;8.240;2023-01-29T01:16:00;101418.53;;;-0.43;100.00
804;BME280;25687;49.976;8.240;2023-01-29T01:18:28;101418.41;;;-0.51;100.00
804;BME280;25687;49.976;8.240;2023-01-29T01:20:55;101412.69;;;-0.39;100.00
804;BME280;25687;49.976;8.240;2023-01-29T01:23:23;101407.56;;;-0.42;100.00
804;BME280;25687;49.976;8.240;2023-01-29T01:25:48;101405.97;;;-0.36;100.00
804;BME280;25687;49.976;8.240;2023-01-29T01:28:13;101407.63;;;-0.38;100.00
804;BME280;25687;49.976;8.240;2023-01-29T01:30:39;101411.03;;;-0.36;100.00
804;BME280;25687;49.976;8.240;2023-01-29T01:33:04;101396.69;;;-0.37;100.00
804;BME280;25687;49.976;8.240;2023-01-29T01:35:29;101394.94;;;-0.42;100.00
804;BME280;25687;49.976;8.240;2023-01-29T01:37:55;101401.50;;;-0.57;100.00
804;BME280;25687;49.976;8.240;2023-01-29T01:40:20;101396.41;;;-0.58;100.00
804;BME280;25687;49.976;8.240;2023-01-29T01:42:47;101395.53;;;-0.63;100.00
804;BME280;25687;49.976;8.240;2023-01-29T01:45:24;101392.06;;;-0.72;100.00
804;BME280;25687;49.976;8.240;2023-01-29T01:48:35;101388.75;;;-0.68;100.00
804;BME280;25687;49.976;8.240;2023-01-29T01:50:38;101384.59;;;-0.62;100.00
804;BME280;25687;49.976;8.240;2023-01-29T01:53:07;101371.13;;;-0.60;100.00
804;BME280;25687;49.976;8.240;2023-01-29T01:55:34;101364.44;;;-0.56;100.00
804;BME280;25687;49.976;8.240;2023-01-29T01:58:03;101367.03;;;-0.50;100.00
804;BME280;25687;49.976;8.240;2023-01-29T02:00:30;101367.03;;;-0.49;100.00
804;BME280;25687;49.976;8.240;2023-01-29T02:02:55;101361.97;;;-0.50;100.00
804;BME280;25687;49.976;8.240;2023-01-29T02:05:39;101362.78;;;-0.53;100.00
804;BME280;25687;49.976;8.240;2023-01-29T02:08:27;101359.38;;;-0.56;100.00
804;BME280;25687;49.976;8.240;2023-01-29T02:11:12;101360.22;;;-0.57;100.00
804;BME280;25687;49.976;8.240;2023-01-29T02:13:37;101354.19;;;-0.67;100.00
804;BME280;25687;49.976;8.240;2023-01-29T02:16:03;101358.25;;;-0.83;100.00
804;BME280;25687;49.976;8.240;2023-01-29T02:18:28;101355.81;;;-0.72;100.00
804;BME280;25687;49.976;8.240;2023-01-29T02:21:11;101365.13;;;-0.70;100.00
804;BME280;25687;49.976;8.240;2023-01-29T02:24:00;101369.34;;;-0.69;100.00
804;BME280;25687;49.976;8.240;2023-01-29T02:26:38;101361.81;;;-0.64;100.00
804;BME280;25687;49.976;8.240;2023-01-29T02:29:17;101364.22;;;-0.75;100.00
804;BME280;25687;49.976;8.240;2023-01-29T02:32:29;101364.28;;;-0.72;100.00
804;BME280;25687;49.976;8.240;2023-01-29T02:34:46;101376.13;;;-0.65;100.00
804;BME280;25687;49.976;8.240;2023-01-29T02:37:36;101367.78;;;-0.59;100.00
804;BME280;25687;49.976;8.240;2023-01-29T02:40:08;101383.00;;;-0.54;100.00
804;BME280;25687;49.976;8.240;2023-01-29T02:42:45;101387.19;;;-0.56;100.00
804;BME280;25687;49.976;8.240;2023-01-29T02:45:14;101385.47;;;-0.60;100.00
804;BME280;25687;49.976;8.240;2023-01-29T02:47:58;101384.66;;;-0.55;100.00
804;BME280;25687;49.976;8.240;2023-01-29T02:55:34;101402.91;;;-0.79;100.00
804;BME280;25687;49.976;8.240;2023-01-29T02:58:26;101404.50;;;-0.86;100.00
804;BME280;25687;49.976;8.240;2023-01-29T03:00:47;101406.31;;;-0.77;100.00
804;BME280;25687;49.976;8.240;2023-01-29T03:03:15;101407.25;;;-0.67;100.00
804;BME280;25687;49.976;8.240;2023-01-29T03:05:44;101399.75;;;-0.64;100.00
804;BME280;25687;49.976;8.240;2023-01-29T03:08:24;101389.66;;;-0.61;100.00
804;BME280;25687;49.976;8.240;2023-01-29T03:11:04;101377.81;;;-0.63;100.00
804;BME280;25687;49.976;8.240;2023-01-29T03:18:36;101380.19;;;-0.79;100.00
804;BME280;25687;49.976;8.240;2023-01-29T03:21:08;101381.16;;;-0.69;100.00
804;BME280;25687;49.976;8.240;2023-01-29T03:23:55;101383.59;;;-0.75;100.00
804;BME280;25687;49.976;8.240;2023-01-29T03:26:40;101394.59;;;-0.72;100.00
804;BME280;25687;49.976;8.240;2023-01-29T03:29:25;101400.56;;;-0.67;100.00
804;BME280;25687;49.976;8.240;2023-01-29T03:32:09;101390.38;;;-0.73;100.00
804;BME280;25687;49.976;8.240;2023-01-29T03:34:39;101400.38;;;-0.80;100.00
804;BME280;25687;49.976;8.240;2023-01-29T03:37:17;101408.06;;;-0.71;100.00
804;BME280;25687;49.976;8.240;2023-01-29T03:39:44;101403.91;;;-0.65;100.00
804;BME280;25687;49.976;8.240;2023-01-29T03:50:06;101391.34;;;-0.63;100.00
804;BME280;25687;49.976;8.240;2023-01-29T04:03:08;101408.06;;;-0.70;100.00
804;BME280;25687;49.976;8.240;2023-01-29T04:05:38;101402.13;;;-0.73;100.00
804;BME280;25687;49.976;8.240;2023-01-29T04:08:07;101399.56;;;-0.78;100.00
804;BME280;25687;49.976;8.240;2023-01-29T04:10:34;101402.13;;;-0.75;100.00
804;BME280;25687;49.976;8.240;2023-01-29T04:13:01;101397.94;;;-0.74;100.00
804;BME280;25687;49.976;8.240;2023-01-29T04:15:28;101390.16;;;-0.88;100.00
804;BME280;25687;49.976;8.240;2023-01-29T04:17:55;101380.00;;;-0.91;100.00
804;BME280;25687;49.976;8.240;2023-01-29T04:20:21;101369.81;;;-0.99;100.00
804;BME280;25687;49.976;8.240;2023-01-29T04:22:47;101368.00;;;-1.08;100.00
804;BME280;25687;49.976;8.240;2023-01-29T04:25:17;101364.59;;;-1.11;100.00
804;BME280;25687;49.976;8.240;2023-01-29T04:30:32;101363.91;;;-0.98;100.00
804;BME280;25687;49.976;8.240;2023-01-29T04:33:03;101363.97;;;-0.93;100.00
804;BME280;25687;49.976;8.240;2023-01-29T04:35:51;101369.78;;;-1.01;100.00
804;BME280;25687;49.976;8.240;2023-01-29T04:38:39;101372.28;;;-1.02;100.00
804;BME280;25687;49.976;8.240;2023-01-29T04:41:09;101366.34;;;-1.04;100.00
804;BME280;25687;49.976;8.240;2023-01-29T04:46:12;101377.47;;;-0.93;100.00
804;BME280;25687;49.976;8.240;2023-01-29T04:51:11;101376.50;;;-1.01;100.00
804;BME280;25687;49.976;8.240;2023-01-29T04:56:07;101384.53;;;-1.30;100.00
804;BME280;25687;49.976;8.240;2023-01-29T04:58:37;101379.44;;;-1.32;100.00
804;BME280;25687;49.976;8.240;2023-01-29T05:01:05;101372.66;;;-1.34;100.00
804;BME280;25687;49.976;8.240;2023-01-29T05:03:30;101384.28;;;-1.44;100.00
804;BME280;25687;49.976;8.240;2023-01-29T05:05:56;101379.19;;;-1.49;100.00
804;BME280;25687;49.976;8.240;2023-01-29T05:08:24;101379.94;;;-1.54;100.00
804;BME280;25687;49.976;8.240;2023-01-29T05:10:51;101388.47;;;-1.48;100.00
804;BME280;25687;49.976;8.240;2023-01-29T05:13:17;101384.19;;;-1.50;100.00
804;BME280;25687;49.976;8.240;2023-01-29T05:15:49;101395.19;;;-1.47;100.00
804;BME280;25687;49.976;8.240;2023-01-29T05:18:16;101387.56;;;-1.51;100.00
804;BME280;25687;49.976;8.240;2023-01-29T05:20:42;101388.47;;;-1.48;100.00
804;BME280;25687;49.976;8.240;2023-01-29T05:23:15;101380.84;;;-1.51;100.00
804;BME280;25687;49.976;8.240;2023-01-29T05:25:40;101380.81;;;-1.52;100.00
804;BME280;25687;49.976;8.240;2023-01-29T05:28:05;101376.78;;;-1.39;100.00
804;BME280;25687;49.976;8.240;2023-01-29T05:30:46;101369.19;;;-1.42;100.00
804;BME280;25687;49.976;8.240;2023-01-29T05:33:22;101361.47;;;-1.50;100.00
804;BME280;25687;49.976;8.240;2023-01-29T05:35:47;101355.50;;;-1.55;100.00
804;BME280;25687;49.976;8.240;2023-01-29T05:38:13;101354.59;;;-1.62;100.00
804;BME280;25687;49.976;8.240;2023-01-29T05:40:38;101358.75;;;-1.64;100.00
804;BME280;25687;49.976;8.240;2023-01-29T05:43:03;101366.13;;;-1.76;100.00
804;BME280;25687;49.976;8.240;2023-01-29T05:45:29;101374.44;;;-1.82;100.00
804;BME280;25687;49.976;8.240;2023-01-29T05:47:55;101377.09;;;-1.74;100.00
804;BME280;25687;49.976;8.240;2023-01-29T05:50:21;101370.44;;;-1.69;100.00
804;BME280;25687;49.976;8.240;2023-01-29T05:52:46;101373.88;;;-1.66;100.00
804;BME280;25687;49.976;8.240;2023-01-29T05:55:11;101380.66;;;-1.62;100.00
804;BME280;25687;49.976;8.240;2023-01-29T05:57:38;101388.28;;;-1.58;100.00
804;BME280;25687;49.976;8.240;2023-01-29T06:00:04;101386.63;;;-1.56;100.00
804;BME280;25687;49.976;8.240;2023-01-29T06:02:29;101386.69;;;-1.53;100.00
804;BME280;25687;49.976;8.240;2023-01-29T06:04:55;101372.31;;;-1.57;100.00
804;BME280;25687;49.976;8.240;2023-01-29T06:07:20;101380.00;;;-1.50;100.00
804;BME280;25687;49.976;8.240;2023-01-29T06:09:45;101385.88;;;-1.52;100.00
804;BME280;25687;49.976;8.240;2023-01-29T06:12:11;101386.59;;;-1.58;100.00
804;BME280;25687;49.976;8.240;2023-01-29T06:14:36;101390.81;;;-1.58;100.00
804;BME280;25687;49.976;8.240;2023-01-29T06:17:02;101383.16;;;-1.62;100.00
804;BME280;25687;49.976;8.240;2023-01-29T06:19:27;101381.63;;;-1.53;100.00
804;BME280;25687;49.976;8.240;2023-01-29T06:21:52;101376.66;;;-1.49;100.00
804;BME280;25687;49.976;8.240;2023-01-29T06:24:17;101379.22;;;-1.47;100.00
804;BME280;25687;49.976;8.240;2023-01-29T06:26:43;101380.03;;;-1.48;100.00
804;BME280;25687;49.976;8.240;2023-01-29T06:29:08;101369.94;;;-1.48;100.00
804;BME280;25687;49.976;8.240;2023-01-29T06:31:33;101366.50;;;-1.52;100.00
804;BME280;25687;49.976;8.240;2023-01-29T06:33:58;101363.03;;;-1.60;100.00
804;BME280;25687;49.976;8.240;2023-01-29T06:36:23;101364.66;;;-1.62;100.00
804;BME280;25687;49.976;8.240;2023-01-29T06:38:49;101364.78;;;-1.56;100.00
804;BME280;25687;49.976;8.240;2023-01-29T06:41:15;101359.75;;;-1.53;100.00
804;BME280;25687;49.976;8.240;2023-01-29T06:43:42;101368.28;;;-1.46;100.00
804;BME280;25687;49.976;8.240;2023-01-29T06:46:08;101360.63;;;-1.52;100.00
804;BME280;25687;49.976;8.240;2023-01-29T06:48:33;101362.97;;;-1.63;100.00
804;BME280;25687;49.976;8.240;2023-01-29T06:51:02;101362.22;;;-1.57;100.00
804;BME280;25687;49.976;8.240;2023-01-29T06:53:27;101360.59;;;-1.54;100.00
804;BME280;25687;49.976;8.240;2023-01-29T06:55:53;101367.31;;;-1.53;100.00
804;BME280;25687;49.976;8.240;2023-01-29T06:58:18;101368.19;;;-1.54;100.00
804;BME280;25687;49.976;8.240;2023-01-29T07:00:44;101368.94;;;-1.56;100.00
804;BME280;25687;49.976;8.240;2023-01-29T07:03:09;101367.31;;;-1.54;100.00
804;BME280;25687;49.976;8.240;2023-01-29T07:05:35;101366.50;;;-1.53;100.00
804;BME280;25687;49.976;8.240;2023-01-29T07:08:00;101374.06;;;-1.53;100.00
804;BME280;25687;49.976;8.240;2023-01-29T07:10:25;101375.69;;;-1.57;100.00
804;BME280;25687;49.976;8.240;2023-01-29T07:12:50;101376.63;;;-1.50;100.00
804;BME280;25687;49.976;8.240;2023-01-29T07:15:15;101385.13;;;-1.45;100.00
804;BME280;25687;49.976;8.240;2023-01-29T07:17:54;101391.91;;;-1.42;100.00
804;BME280;25687;49.976;8.240;2023-01-29T07:20:19;101389.28;;;-1.49;100.00
804;BME280;25687;49.976;8.240;2023-01-29T07:22:45;101399.31;;;-1.52;100.00
804;BME280;25687;49.976;8.240;2023-01-29T07:25:10;101401.72;;;-1.59;100.00
804;BME280;25687;49.976;8.240;2023-01-29T07:27:35;101406.69;;;-1.63;100.00
804;BME280;25687;49.976;8.240;2023-01-29T07:30:00;101413.59;;;-1.54;100.00
804;BME280;25687;49.976;8.240;2023-01-29T07:32:27;101414.53;;;-1.47;100.00
804;BME280;25687;49.976;8.240;2023-01-29T07:34:52;101419.50;;;-1.53;100.00
804;BME280;25687;49.976;8.240;2023-01-29T07:37:17;101419.63;;;-1.44;100.00
804;BME280;25687;49.976;8.240;2023-01-29T07:39:42;101417.16;;;-1.41;100.00
804;BME280;25687;49.976;8.240;2023-01-29T07:42:08;101416.44;;;-1.35;100.00
804;BME280;25687;49.976;8.240;2023-01-29T07:44:33;101416.47;;;-1.32;100.00
804;BME280;25687;49.976;8.240;2023-01-29T07:46:58;101407.38;;;-1.21;100.00
804;BME280;25687;49.976;8.240;2023-01-29T07:49:23;101404.91;;;-1.16;100.00
804;BME280;25687;49.976;8.240;2023-01-29T07:51:48;101406.66;;;-1.12;100.00
804;BME280;25687;49.976;8.240;2023-01-29T07:54:13;101394.09;;;-1.07;100.00
804;BME280;25687;49.976;8.240;2023-01-29T07:56:39;101389.00;;;-1.10;100.00
804;BME280;25687;49.976;8.240;2023-01-29T07:59:04;101380.69;;;-1.03;100.00
804;BME280;25687;49.976;8.240;2023-01-29T08:01:29;101377.41;;;-0.96;100.00
804;BME280;25687;49.976;8.240;2023-01-29T08:03:54;101374.97;;;-0.90;100.00
804;BME280;25687;49.976;8.240;2023-01-29T08:06:19;101383.50;;;-0.83;100.00
804;BME280;25687;49.976;8.240;2023-01-29T08:08:44;101389.47;;;-0.78;100.00
804;BME280;25687;49.976;8.240;2023-01-29T08:11:10;101384.59;;;-0.61;100.00
804;BME280;25687;49.976;8.240;2023-01-29T08:13:35;101384.63;;;-0.59;100.00
804;BME280;25687;49.976;8.240;2023-01-29T08:16:00;101382.25;;;-0.47;100.00
804;BME280;25687;49.976;8.240;2023-01-29T08:18:26;101386.47;;;-0.46;100.00
804;BME280;25687;49.976;8.240;2023-01-29T08:20:52;101388.06;;;-0.54;100.00
804;BME280;25687;49.976;8.240;2023-01-29T08:23:17;101408.06;;;-0.71;100.00
804;BME280;25687;49.976;8.240;2023-01-29T08:25:42;101416.56;;;-0.66;100.00
804;BME280;25687;49.976;8.240;2023-01-29T08:28:08;101414.88;;;-0.66;100.00
804;BME280;25687;49.976;8.240;2023-01-29T08:30:33;101412.44;;;-0.58;100.00
804;BME280;25687;49.976;8.240;2023-01-29T08:32:59;101403.06;;;-0.67;100.00
804;BME280;25687;49.976;8.240;2023-01-29T08:35:25;101404.00;;;-0.60;100.00
804;BME280;25687;49.976;8.240;2023-01-29T08:37:57;101392.09;;;-0.67;100.00
804;BME280;25687;49.976;8.240;2023-01-29T08:40:26;101387.25;;;-0.53;100.00
804;BME280;25687;49.976;8.240;2023-01-29T08:42:51;101378.94;;;-0.40;100.00
804;BME280;25687;49.976;8.240;2023-01-29T08:45:17;101389.94;;;-0.36;100.00
804;BME280;25687;49.976;8.240;2023-01-29T08:47:44;101389.44;;;-0.07;100.00
804;BME280;25687;49.976;8.240;2023-01-29T08:50:09;101397.22;;;0.14;100.00
804;BME280;25687;49.976;8.240;2023-01-29T08:52:34;101399.81;;;0.22;100.00
804;BME280;25687;49.976;8.240;2023-01-29T08:54:59;101410.13;;;0.44;100.00
804;BME280;25687;49.976;8.240;2023-01-29T08:57:25;101420.41;;;0.61;100.00
804;BME280;25687;49.976;8.240;2023-01-29T08:59:50;101407.59;;;0.44;100.00
804;BME280;25687;49.976;8.240;2023-01-29T09:02:15;101397.56;;;0.55;100.00
804;BME280;25687;49.976;8.240;2023-01-29T09:04:40;101411.13;;;0.63;100.00
804;BME280;25687;49.976;8.240;2023-01-29T09:07:05;101409.19;;;0.32;100.00
804;BME280;25687;49.976;8.240;2023-01-29T09:09:30;101410.84;;;0.29;100.00
804;BME280;25687;49.976;8.240;2023-01-29T09:11:56;101416.53;;;0.06;100.00
804;BME280;25687;49.976;8.240;2023-01-29T09:14:21;101417.97;;;-0.18;100.00
804;BME280;25687;49.976;8.240;2023-01-29T09:16:46;101415.34;;;-0.28;100.00
804;BME280;25687;49.976;8.240;2023-01-29T09:19:11;101417.19;;;-0.13;100.00
804;BME280;25687;49.976;8.240;2023-01-29T09:21:36;101416.44;;;-0.02;100.00
804;BME280;25687;49.976;8.240;2023-01-29T09:24:01;101428.47;;;0.20;100.00
804;BME280;25687;49.976;8.240;2023-01-29T09:26:27;101435.09;;;0.07;100.00
804;BME280;25687;49.976;8.240;2023-01-29T09:28:52;101439.28;;;0.02;100.00
804;BME280;25687;49.976;8.240;2023-01-29T09:31:17;101446.66;;;-0.15;100.00
804;BME280;25687;49.976;8.240;2023-01-29T09:33:42;101438.16;;;-0.22;100.00
804;BME280;25687;49.976;8.240;2023-01-29T09:36:07;101447.41;;;-0.26;100.00
804;BME280;25687;49.976;8.240;2023-01-29T09:38:33;101448.44;;;-0.10;100.00
804;BME280;25687;49.976;8.240;2023-01-29T09:41:16;101440.66;;;-0.25;100.00
804;BME280;25687;49.976;8.240;2023-01-29T09:43:48;101445.97;;;-0.04;100.00
804;BME280;25687;49.976;8.240;2023-01-29T09:46:21;101444.34;;;0.06;100.00
804;BME280;25687;49.976;8.240;2023-01-29T09:48:50;101447.81;;;0.11;100.00
804;BME280;25687;49.976;8.240;2023-01-29T09:51:29;101447.00;;;0.14;100.00
804;BME280;25687;49.976;8.240;2023-01-29T09:56:29;101451.94;;;0.03;100.00
804;BME280;25687;49.976;8.240;2023-01-29T09:58:57;101456.09;;;-0.01;100.00
804;BME280;25687;49.976;8.240;2023-01-29T10:11:59;101426.69;;;0.11;100.00
804;BME280;25687;49.976;8.240;2023-01-29T10:14:34;101431.00;;;0.17;100.00
804;BME280;25687;49.976;8.240;2023-01-29T10:19:55;101437.88;;;0.35;100.00
804;BME280;25687;49.976;8.240;2023-01-29T10:23:25;101433.75;;;0.40;100.00
804;BME280;25687;49.976;8.240;2023-01-29T10:25:19;101428.06;;;-0.19;100.00
804;BME280;25687;49.976;8.240;2023-01-29T10:27:49;101420.69;;;-0.01;100.00
804;BME280;25687;49.976;8.240;2023-01-29T10:33:04;101393.25;;;0.40;100.00
804;BME280;25687;49.976;8.240;2023-01-29T10:35:30;101383.31;;;0.64;100.00
804;BME280;25687;49.976;8.240;2023-01-29T10:37:57;101371.53;;;0.74;100.00
804;BME280;25687;49.976;8.240;2023-01-29T10:40:28;101375.94;;;1.03;100.00
804;BME280;25687;49.976;8.240;2023-01-29T10:42:58;101370.88;;;1.05;100.00
804;BME280;25687;49.976;8.240;2023-01-29T10:45:35;101358.16;;;1.02;100.00
804;BME280;25687;49.976;8.240;2023-01-29T10:48:08;101352.22;;;0.92;100.00
804;BME280;25687;49.976;8.240;2023-01-29T10:50:46;101348.88;;;0.94;100.00
804;BME280;25687;49.976;8.240;2023-01-29T10:53:26;101345.59;;;1.16;100.00
804;BME280;25687;49.976;8.240;2023-01-29T10:55:57;101345.72;;;1.47;100.00
804;BME280;25687;49.976;8.240;2023-01-29T10:58:37;101338.19;;;1.84;98.49
804;BME280;25687;49.976;8.240;2023-01-29T11:01:06;101333.97;;;2.01;96.57
804;BME280;25687;49.976;8.240;2023-01-29T11:03:32;101324.66;;;1.92;94.11
804;BME280;25687;49.976;8.240;2023-01-29T11:06:01;101323.81;;;2.14;94.00
804;BME280;25687;49.976;8.240;2023-01-29T11:08:28;101317.91;;;2.16;94.22
804;BME280;25687;49.976;8.240;2023-01-29T11:11:14;101311.13;;;2.09;94.11
804;BME280;25687;49.976;8.240;2023-01-29T11:13:48;101317.91;;;2.22;93.32
804;BME280;25687;49.976;8.240;2023-01-29T11:16:16;101311.97;;;2.03;92.05
804;BME280;25687;49.976;8.240;2023-01-29T11:18:54;101304.34;;;1.94;92.45
804;BME280;25687;49.976;8.240;2023-01-29T11:21:20;101298.41;;;2.06;92.38
804;BME280;25687;49.976;8.240;2023-01-29T11:23:45;101296.72;;;2.02;91.77
804;BME280;25687;49.976;8.240;2023-01-29T11:26:12;101300.97;;;2.15;92.85
804;BME280;25687;49.976;8.240;2023-01-29T11:28:38;101302.69;;;2.02;92.50
804;BME280;25687;49.976;8.240;2023-01-29T11:31:21;101306.88;;;1.68;94.39
804;BME280;25687;49.976;8.240;2023-01-29T11:33:46;101306.03;;;1.70;96.82
804;BME280;25687;49.976;8.240;2023-01-29T11:36:19;101300.94;;;1.69;96.01
804;BME280;25687;49.976;8.240;2023-01-29T11:38:44;101297.56;;;1.81;96.37
804;BME280;25687;49.976;8.240;2023-01-29T11:41:14;101291.63;;;1.85;94.22
804;BME280;25687;49.976;8.240;2023-01-29T11:43:42;101291.63;;;1.71;95.92
804;BME280;25687;49.976;8.240;2023-01-29T11:46:10;101289.97;;;1.71;95.55
804;BME280;25687;49.976;8.240;2023-01-29T11:48:41;101295.00;;;1.64;96.12
804;BME280;25687;49.976;8.240;2023-01-29T11:51:07;101289.13;;;1.75;97.32
804;BME280;25687;49.976;8.240;2023-01-29T11:53:38;101282.34;;;1.94;96.93
804;BME280;25687;49.976;8.240;2023-01-29T11:56:16;101284.88;;;1.94;95.46
804;BME280;25687;49.976;8.240;2023-01-29T11:58:42;101279.81;;;1.91;94.91
804;BME280;25687;49.976;8.240;2023-01-29T12:01:08;101273.06;;;1.89;95.87
804;BME280;25687;49.976;8.240;2023-01-29T12:03:35;101257.81;;;2.04;95.31
804;BME280;25687;49.976;8.240;2023-01-29T12:06:16;101251.03;;;2.23;95.24
804;BME280;25687;49.976;8.240;2023-01-29T12:08:42;101243.44;;;2.17;95.15
804;BME280;25687;49.976;8.240;2023-01-29T12:11:09;101242.59;;;1.76;95.19
804;BME280;25687;49.976;8.240;2023-01-29T12:13:34;101241.75;;;1.74;96.28
804;BME280;25687;49.976;8.240;2023-01-29T12:16:14;101236.69;;;1.65;97.77
804;BME280;25687;49.976;8.240;2023-01-29T12:18:42;101227.38;;;1.66;98.21
804;BME280;25687;49.976;8.240;2023-01-29T12:21:11;101229.91;;;1.72;98.01
804;BME280;25687;49.976;8.240;2023-01-29T12:26:05;101214.72;;;1.75;97.32
804;BME280;25687;49.976;8.240;2023-01-29T12:28:44;101205.38;;;1.82;97.99
804;BME280;25687;49.976;8.240;2023-01-29T12:36:41;101215.50;;;1.27;98.85
804;BME280;25687;49.976;8.240;2023-01-29T12:39:11;101210.44;;;1.35;100.00
804;BME280;25687;49.976;8.240;2023-01-29T12:41:42;101196.09;;;1.62;100.00
804;BME280;25687;49.976;8.240;2023-01-29T12:44:14;101193.53;;;1.93;99.16
804;BME280;25687;49.976;8.240;2023-01-29T12:46:45;101185.03;;;2.14;97.31
804;BME280;25687;49.976;8.240;2023-01-29T12:49:22;101181.63;;;2.18;96.22
804;BME280;25687;49.976;8.240;2023-01-29T12:51:52;101176.53;;;2.34;95.93
804;BME280;25687;49.976;8.240;2023-01-29T12:54:26;101168.03;;;2.38;95.95
804;BME280;25687;49.976;8.240;2023-01-29T12:56:57;101163.81;;;2.35;95.71
804;BME280;25687;49.976;8.240;2023-01-29T13:07:53;101161.38;;;2.04;96.78
804;BME280;25687;49.976;8.240;2023-01-29T13:10:28;101157.16;;;1.97;96.63
804;BME280;25687;49.976;8.240;2023-01-29T13:13:00;101152.09;;;1.94;97.31
804;BME280;25687;49.976;8.240;2023-01-29T13:15:37;101147.91;;;1.65;99.42
804;BME280;25687;49.976;8.240;2023-01-29T13:21:01;101149.59;;;1.24;100.00
804;BME280;25687;49.976;8.240;2023-01-29T13:23:30;101147.03;;;1.21;100.00
804;BME280;25687;49.976;8.240;2023-01-29T13:25:57;101136.06;;;1.33;100.00
804;BME280;25687;49.976;8.240;2023-01-29T13:28:24;101127.63;;;1.48;100.00
804;BME280;25687;49.976;8.240;2023-01-29T13:33:39;101135.25;;;1.47;100.00
804;BME280;25687;49.976;8.240;2023-01-29T13:36:13;101129.28;;;1.41;100.00
804;BME280;25687;49.976;8.240;2023-01-29T13:38:40;101122.56;;;1.40;100.00
804;BME280;25687;49.976;8.240;2023-01-29T13:41:08;101124.25;;;1.23;100.00
804;BME280;25687;49.976;8.240;2023-01-29T13:43:34;101127.59;;;1.26;100.00
804;BME280;25687;49.976;8.240;2023-01-29T13:46:05;101123.38;;;1.16;100.00
804;BME280;25687;49.976;8.240;2023-01-29T13:48:31;101118.31;;;1.22;100.00
804;BME280;25687;49.976;8.240;2023-01-29T13:51:00;101123.41;;;1.25;100.00
804;BME280;25687;49.976;8.240;2023-01-29T13:55:55;101105.66;;;1.22;100.00
804;BME280;25687;49.976;8.240;2023-01-29T13:59:02;101109.88;;;1.19;100.00
804;BME280;25687;49.976;8.240;2023-01-29T14:06:49;101096.38;;;1.18;100.00
804;BME280;25687;49.976;8.240;2023-01-29T14:11:59;101088.72;;;0.84;100.00
804;BME280;25687;49.976;8.240;2023-01-29T14:17:08;101087.03;;;0.89;100.00
804;BME280;25687;49.976;8.240;2023-01-29T14:19:34;101098.00;;;0.77;100.00
804;BME280;25687;49.976;8.240;2023-01-29T14:21:59;101093.78;;;0.81;100.00
804;BME280;25687;49.976;8.240;2023-01-29T14:24:26;101093.78;;;0.84;100.00
804;BME280;25687;49.976;8.240;2023-01-29T14:26:54;101085.34;;;0.84;100.00
804;BME280;25687;49.976;8.240;2023-01-29T14:29:23;101093.78;;;0.81;100.00
804;BME280;25687;49.976;8.240;2023-01-29T14:34:40;101091.28;;;0.95;100.00
804;BME280;25687;49.976;8.240;2023-01-29T14:42:22;101093.75;;;0.72;100.00
804;BME280;25687;49.976;8.240;2023-01-29T14:44:59;101089.53;;;0.60;100.00
804;BME280;25687;49.976;8.240;2023-01-29T14:52:22;101078.59;;;0.73;100.00
804;BME280;25687;49.976;8.240;2023-01-29T14:54:49;101070.97;;;0.70;100.00
804;BME280;25687;49.976;8.240;2023-01-29T14:57:15;101055.78;;;0.67;100.00
804;BME280;25687;49.976;8.240;2023-01-29T14:59:49;101067.59;;;0.67;100.00
804;BME280;25687;49.976;8.240;2023-01-29T15:04:45;101054.94;;;0.76;100.00